sensor_id;sensor_type;location;lat;lon;timestamp;P1;durP1;ratioP1;P2;durP2;ratioP2
1811;SDS011;904;47.814;11.134;2023-02-28T00:01:32;5.30;;;3.67;;
1811;SDS011;904;47.814;11.134;2023-02-28T00:03:59;4.82;;;3.53;;
1811;SDS011;904;47.814;11.134;2023-02-28T00:06:28;4.80;;;3.10;;
1811;SDS011;904;47.814;11.134;2023-02-28T00:08:55;6.30;;;4.05;;
1811;SDS011;904;47.814;11.134;2023-02-28T00:11:22;4.85;;;3.30;;
1811;SDS011;904;47.814;11.134;2023-02-28T00:13:49;7.38;;;4.18;;
1811;SDS011;904;47.814;11.134;2023-02-28T00:16:17;4.78;;;3.70;;
1811;SDS011;904;47.814;11.134;2023-02-28T00:18:45;7.35;;;3.72;;
1811;SDS011;904;47.814;11.134;2023-02-28T00:21:13;8.38;;;3.80;;
1811;SDS011;904;47.814;11.134;2023-02-28T00:23:42;5.03;;;3.50;;
1811;SDS011;904;47.814;11.134;2023-02-28T00:26:09;5.88;;;3.40;;
1811;SDS011;904;47.814;11.134;2023-02-28T00:28:36;6.03;;;3.55;;
1811;SDS011;904;47.814;11.134;2023-02-28T00:31:03;4.47;;;3.33;;
1811;SDS011;904;47.814;11.134;2023-02-28T00:33:30;5.50;;;3.60;;
1811;SDS011;904;47.814;11.134;2023-02-28T00:36:01;5.60;;;4.18;;
1811;SDS011;904;47.814;11.134;2023-02-28T00:38:30;4.20;;;3.08;;
1811;SDS011;904;47.814;11.134;2023-02-28T00:40:58;12.63;;;4.03;;
1811;SDS011;904;47.814;11.134;2023-02-28T00:43:29;4.68;;;2.33;;
1811;SDS011;904;47.814;11.134;2023-02-28T00:45:57;7.38;;;3.67;;
1811;SDS011;904;47.814;11.134;2023-02-28T00:48:24;7.40;;;4.43;;
1811;SDS011;904;47.814;11.134;2023-02-28T00:50:51;4.00;;;2.95;;
1811;SDS011;904;47.814;11.134;2023-02-28T00:53:18;5.07;;;4.18;;
1811;SDS011;904;47.814;11.134;2023-02-28T00:55:45;5.32;;;3.35;;
1811;SDS011;904;47.814;11.134;2023-02-28T00:58:13;5.05;;;3.60;;
1811;SDS011;904;47.814;11.134;2023-02-28T01:00:40;11.18;;;4.43;;
1811;SDS011;904;47.814;11.134;2023-02-28T01:03:07;8.10;;;4.05;;
1811;SDS011;904;47.814;11.134;2023-02-28T01:05:34;6.40;;;4.80;;
1811;SDS011;904;47.814;11.134;2023-02-28T01:08:01;8.32;;;4.47;;
1811;SDS011;904;47.814;11.134;2023-02-28T01:10:28;9.20;;;5.13;;
1811;SDS011;904;47.814;11.134;2023-02-28T01:12:56;5.00;;;4.03;;
1811;SDS011;904;47.814;11.134;2023-02-28T01:15:25;7.65;;;5.03;;
1811;SDS011;904;47.814;11.134;2023-02-28T01:17:52;9.35;;;4.80;;
1811;SDS011;904;47.814;11.134;2023-02-28T01:20:19;6.03;;;4.78;;
1811;SDS011;904;47.814;11.134;2023-02-28T01:22:46;7.65;;;5.60;;
1811;SDS011;904;47.814;11.134;2023-02-28T01:25:12;12.55;;;6.60;;
1811;SDS011;904;47.814;11.134;2023-02-28T01:27:40;8.10;;;4.75;;
1811;SDS011;904;47.814;11.134;2023-02-28T01:30:07;7.50;;;4.57;;
1811;SDS011;904;47.814;11.134;2023-02-28T01:32:36;12.43;;;5.30;;
1811;SDS011;904;47.814;11.134;2023-02-28T01:35:03;7.07;;;4.20;;
1811;SDS011;904;47.814;11.134;2023-02-28T01:37:31;9.45;;;5.10;;
1811;SDS011;904;47.814;11.134;2023-02-28T01:39:58;10.07;;;6.43;;
1811;SDS011;904;47.814;11.134;2023-02-28T01:42:25;7.88;;;5.95;;
1811;SDS011;904;47.814;11.134;2023-02-28T01:44:59;9.77;;;5.93;;
1811;SDS011;904;47.814;11.134;2023-02-28T01:47:30;8.27;;;5.97;;
1811;SDS011;904;47.814;11.134;2023-02-28T01:50:01;7.03;;;5.05;;
1811;SDS011;904;47.814;11.134;2023-02-28T01:52:31;8.63;;;4.97;;
1811;SDS011;904;47.814;11.134;2023-02-28T01:54:59;6.93;;;4.82;;
1811;SDS011;904;47.814;11.134;2023-02-28T01:57:28;9.85;;;4.90;;
1811;SDS011;904;47.814;11.134;2023-02-28T02:00:03;8.30;;;5.50;;
1811;SDS011;904;47.814;11.134;2023-02-28T02:02:34;6.95;;;4.68;;
1811;SDS011;904;47.814;11.134;2023-02-28T02:05:04;9.52;;;5.43;;
1811;SDS011;904;47.814;11.134;2023-02-28T02:07:33;7.75;;;5.10;;
1811;SDS011;904;47.814;11.134;2023-02-28T02:10:04;9.68;;;5.22;;
1811;SDS011;904;47.814;11.134;2023-02-28T02:12:40;6.97;;;5.40;;
1811;SDS011;904;47.814;11.134;2023-02-28T02:15:29;6.70;;;4.32;;
1811;SDS011;904;47.814;11.134;2023-02-28T02:18:01;9.48;;;3.80;;
1811;SDS011;904;47.814;11.134;2023-02-28T02:23:58;8.23;;;5.45;;
1811;SDS011;904;47.814;11.134;2023-02-28T02:26:45;6.30;;;3.80;;
1811;SDS011;904;47.814;11.134;2023-02-28T02:29:38;7.90;;;4.22;;
1811;SDS011;904;47.814;11.134;2023-02-28T02:32:30;7.82;;;4.55;;
1811;SDS011;904;47.814;11.134;2023-02-28T02:35:30;7.38;;;4.30;;
1811;SDS011;904;47.814;11.134;2023-02-28T02:38:02;6.25;;;4.32;;
1811;SDS011;904;47.814;11.134;2023-02-28T02:40:35;5.18;;;3.60;;
1811;SDS011;904;47.814;11.134;2023-02-28T02:43:22;4.75;;;3.50;;
1811;SDS011;904;47.814;11.134;2023-02-28T02:45:55;5.53;;;4.30;;
1811;SDS011;904;47.814;11.134;2023-02-28T02:48:26;5.50;;;4.00;;
1811;SDS011;904;47.814;11.134;2023-02-28T02:50:59;7.50;;;4.60;;
1811;SDS011;904;47.814;11.134;2023-02-28T02:53:32;4.80;;;3.70;;
1811;SDS011;904;47.814;11.134;2023-02-28T02:56:03;8.02;;;4.68;;
1811;SDS011;904;47.814;11.134;2023-02-28T02:58:33;6.70;;;4.47;;
1811;SDS011;904;47.814;11.134;2023-02-28T03:01:06;5.50;;;4.05;;
1811;SDS011;904;47.814;11.134;2023-02-28T03:03:36;5.78;;;3.97;;
1811;SDS011;904;47.814;11.134;2023-02-28T03:06:05;4.45;;;3.33;;
1811;SDS011;904;47.814;11.134;2023-02-28T03:08:34;4.80;;;3.28;;
1811;SDS011;904;47.814;11.134;2023-02-28T03:11:03;5.43;;;3.83;;
1811;SDS011;904;47.814;11.134;2023-02-28T03:13:36;5.78;;;4.18;;
1811;SDS011;904;47.814;11.134;2023-02-28T03:19:45;7.80;;;3.78;;
1811;SDS011;904;47.814;11.134;2023-02-28T03:22:23;5.47;;;3.83;;
1811;SDS011;904;47.814;11.134;2023-02-28T03:25:17;8.27;;;5.05;;
1811;SDS011;904;47.814;11.134;2023-02-28T03:27:49;6.93;;;4.95;;
1811;SDS011;904;47.814;11.134;2023-02-28T03:30:27;5.65;;;2.95;;
1811;SDS011;904;47.814;11.134;2023-02-28T03:33:08;5.75;;;3.95;;
1811;SDS011;904;47.814;11.134;2023-02-28T03:35:39;5.20;;;3.92;;
1811;SDS011;904;47.814;11.134;2023-02-28T03:38:12;5.28;;;3.47;;
1811;SDS011;904;47.814;11.134;2023-02-28T03:40:44;4.95;;;3.85;;
1811;SDS011;904;47.814;11.134;2023-02-28T03:43:17;6.65;;;4.05;;
1811;SDS011;904;47.814;11.134;2023-02-28T03:45:48;3.97;;;3.15;;
1811;SDS011;904;47.814;11.134;2023-02-28T03:48:19;5.68;;;4.07;;
1811;SDS011;904;47.814;11.134;2023-02-28T03:50:50;6.15;;;4.22;;
1811;SDS011;904;47.814;11.134;2023-02-28T03:53:22;7.00;;;4.03;;
1811;SDS011;904;47.814;11.134;2023-02-28T03:55:54;5.43;;;4.65;;
1811;SDS011;904;47.814;11.134;2023-02-28T03:58:27;5.70;;;4.35;;
1811;SDS011;904;47.814;11.134;2023-02-28T04:00:57;5.07;;;3.85;;
1811;SDS011;904;47.814;11.134;2023-02-28T04:03:33;6.28;;;4.05;;
1811;SDS011;904;47.814;11.134;2023-02-28T04:06:01;7.60;;;5.35;;
1811;SDS011;904;47.814;11.134;2023-02-28T04:08:30;5.78;;;4.82;;
1811;SDS011;904;47.814;11.134;2023-02-28T04:10:58;7.95;;;4.72;;
1811;SDS011;904;47.814;11.134;2023-02-28T04:13:27;6.63;;;4.90;;
1811;SDS011;904;47.814;11.134;2023-02-28T04:15:54;6.25;;;4.88;;
1811;SDS011;904;47.814;11.134;2023-02-28T04:18:21;7.00;;;5.43;;
1811;SDS011;904;47.814;11.134;2023-02-28T04:20:48;5.90;;;3.75;;
1811;SDS011;904;47.814;11.134;2023-02-28T04:23:15;5.95;;;4.30;;
1811;SDS011;904;47.814;11.134;2023-02-28T04:25:43;6.28;;;4.78;;
1811;SDS011;904;47.814;11.134;2023-02-28T04:28:10;7.10;;;4.55;;
1811;SDS011;904;47.814;11.134;2023-02-28T04:30:37;8.48;;;5.20;;
1811;SDS011;904;47.814;11.134;2023-02-28T04:33:05;5.63;;;4.30;;
1811;SDS011;904;47.814;11.134;2023-02-28T04:35:32;6.40;;;4.28;;
1811;SDS011;904;47.814;11.134;2023-02-28T04:37:59;8.93;;;5.45;;
1811;SDS011;904;47.814;11.134;2023-02-28T04:40:26;10.32;;;5.60;;
1811;SDS011;904;47.814;11.134;2023-02-28T04:42:54;8.85;;;5.03;;
1811;SDS011;904;47.814;11.134;2023-02-28T04:45:21;10.43;;;5.93;;
1811;SDS011;904;47.814;11.134;2023-02-28T04:47:48;8.80;;;5.38;;
1811;SDS011;904;47.814;11.134;2023-02-28T04:50:15;7.75;;;4.45;;
1811;SDS011;904;47.814;11.134;2023-02-28T04:52:42;5.97;;;4.25;;
1811;SDS011;904;47.814;11.134;2023-02-28T04:55:09;7.28;;;4.97;;
1811;SDS011;904;47.814;11.134;2023-02-28T04:57:36;9.57;;;4.60;;
1811;SDS011;904;47.814;11.134;2023-02-28T05:00:05;8.57;;;5.88;;
1811;SDS011;904;47.814;11.134;2023-02-28T05:02:36;7.10;;;5.03;;
1811;SDS011;904;47.814;11.134;2023-02-28T05:05:04;7.78;;;5.55;;
1811;SDS011;904;47.814;11.134;2023-02-28T05:07:31;7.15;;;5.15;;
1811;SDS011;904;47.814;11.134;2023-02-28T05:09:58;7.43;;;4.72;;
1811;SDS011;904;47.814;11.134;2023-02-28T05:12:25;7.97;;;5.43;;
1811;SDS011;904;47.814;11.134;2023-02-28T05:14:52;7.32;;;4.97;;
1811;SDS011;904;47.814;11.134;2023-02-28T05:17:20;8.07;;;4.28;;
1811;SDS011;904;47.814;11.134;2023-02-28T05:19:47;7.85;;;5.07;;
1811;SDS011;904;47.814;11.134;2023-02-28T05:22:14;7.82;;;5.30;;
1811;SDS011;904;47.814;11.134;2023-02-28T05:24:42;10.25;;;5.82;;
1811;SDS011;904;47.814;11.134;2023-02-28T05:27:09;10.43;;;5.88;;
1811;SDS011;904;47.814;11.134;2023-02-28T05:29:37;10.98;;;5.90;;
1811;SDS011;904;47.814;11.134;2023-02-28T05:32:08;6.40;;;4.65;;
1811;SDS011;904;47.814;11.134;2023-02-28T05:34:37;9.88;;;6.00;;
1811;SDS011;904;47.814;11.134;2023-02-28T05:37:05;8.15;;;5.32;;
1811;SDS011;904;47.814;11.134;2023-02-28T05:39:37;11.50;;;6.35;;
1811;SDS011;904;47.814;11.134;2023-02-28T05:42:04;11.13;;;7.70;;
1811;SDS011;904;47.814;11.134;2023-02-28T05:44:31;10.68;;;7.05;;
1811;SDS011;904;47.814;11.134;2023-02-28T05:46:58;10.32;;;6.10;;
1811;SDS011;904;47.814;11.134;2023-02-28T05:49:25;9.13;;;6.70;;
1811;SDS011;904;47.814;11.134;2023-02-28T05:51:54;13.70;;;7.10;;
1811;SDS011;904;47.814;11.134;2023-02-28T05:54:21;9.48;;;5.78;;
1811;SDS011;904;47.814;11.134;2023-02-28T05:56:48;10.85;;;8.60;;
1811;SDS011;904;47.814;11.134;2023-02-28T05:59:16;6.80;;;5.30;;
1811;SDS011;904;47.814;11.134;2023-02-28T06:01:44;11.13;;;6.60;;
1811;SDS011;904;47.814;11.134;2023-02-28T06:04:13;9.32;;;7.00;;
1811;SDS011;904;47.814;11.134;2023-02-28T06:06:43;9.70;;;6.13;;
1811;SDS011;904;47.814;11.134;2023-02-28T06:09:12;7.82;;;5.75;;
1811;SDS011;904;47.814;11.134;2023-02-28T06:11:41;9.88;;;5.43;;
1811;SDS011;904;47.814;11.134;2023-02-28T06:14:11;6.50;;;5.38;;
1811;SDS011;904;47.814;11.134;2023-02-28T06:16:42;7.93;;;5.90;;
1811;SDS011;904;47.814;11.134;2023-02-28T06:19:10;6.95;;;5.55;;
1811;SDS011;904;47.814;11.134;2023-02-28T06:21:37;8.52;;;6.13;;
1811;SDS011;904;47.814;11.134;2023-02-28T06:24:05;13.23;;;7.50;;
1811;SDS011;904;47.814;11.134;2023-02-28T06:26:34;8.30;;;5.53;;
1811;SDS011;904;47.814;11.134;2023-02-28T06:29:01;15.50;;;9.50;;
1811;SDS011;904;47.814;11.134;2023-02-28T06:31:29;12.15;;;7.95;;
1811;SDS011;904;47.814;11.134;2023-02-28T06:33:56;13.38;;;7.68;;
1811;SDS011;904;47.814;11.134;2023-02-28T06:36:24;14.05;;;8.52;;
1811;SDS011;904;47.814;11.134;2023-02-28T06:38:51;14.98;;;9.20;;
1811;SDS011;904;47.814;11.134;2023-02-28T06:41:21;17.65;;;9.20;;
1811;SDS011;904;47.814;11.134;2023-02-28T06:43:50;16.08;;;8.43;;
1811;SDS011;904;47.814;11.134;2023-02-28T06:46:18;12.05;;;8.38;;
1811;SDS011;904;47.814;11.134;2023-02-28T06:48:45;16.05;;;9.85;;
1811;SDS011;904;47.814;11.134;2023-02-28T06:51:13;18.30;;;10.65;;
1811;SDS011;904;47.814;11.134;2023-02-28T06:53:41;12.75;;;9.70;;
1811;SDS011;904;47.814;11.134;2023-02-28T06:56:09;16.23;;;9.50;;
1811;SDS011;904;47.814;11.134;2023-02-28T06:58:38;10.85;;;7.38;;
1811;SDS011;904;47.814;11.134;2023-02-28T07:01:06;13.75;;;8.90;;
1811;SDS011;904;47.814;11.134;2023-02-28T07:03:34;14.70;;;9.50;;
1811;SDS011;904;47.814;11.134;2023-02-28T07:06:02;13.95;;;9.65;;
1811;SDS011;904;47.814;11.134;2023-02-28T07:08:30;15.18;;;10.23;;
1811;SDS011;904;47.814;11.134;2023-02-28T07:10:58;12.90;;;8.60;;
1811;SDS011;904;47.814;11.134;2023-02-28T07:13:25;14.15;;;9.18;;
1811;SDS011;904;47.814;11.134;2023-02-28T07:15:53;15.20;;;9.50;;
1811;SDS011;904;47.814;11.134;2023-02-28T07:18:22;15.30;;;10.50;;
1811;SDS011;904;47.814;11.134;2023-02-28T07:20:49;18.80;;;9.80;;
1811;SDS011;904;47.814;11.134;2023-02-28T07:23:16;14.80;;;9.25;;
1811;SDS011;904;47.814;11.134;2023-02-28T07:25:44;13.65;;;9.45;;
1811;SDS011;904;47.814;11.134;2023-02-28T07:28:11;11.07;;;7.95;;
1811;SDS011;904;47.814;11.134;2023-02-28T07:30:39;15.80;;;10.93;;
1811;SDS011;904;47.814;11.134;2023-02-28T07:33:06;14.00;;;9.35;;
1811;SDS011;904;47.814;11.134;2023-02-28T07:35:35;15.30;;;9.43;;
1811;SDS011;904;47.814;11.134;2023-02-28T07:38:02;15.63;;;9.32;;
1811;SDS011;904;47.814;11.134;2023-02-28T07:40:29;13.73;;;10.18;;
1811;SDS011;904;47.814;11.134;2023-02-28T07:42:56;16.95;;;9.80;;
1811;SDS011;904;47.814;11.134;2023-02-28T07:45:25;12.77;;;10.07;;
1811;SDS011;904;47.814;11.134;2023-02-28T07:47:53;14.50;;;9.70;;
1811;SDS011;904;47.814;11.134;2023-02-28T07:50:21;13.82;;;7.80;;
1811;SDS011;904;47.814;11.134;2023-02-28T07:52:49;11.00;;;8.05;;
1811;SDS011;904;47.814;11.134;2023-02-28T07:55:16;12.02;;;8.95;;
1811;SDS011;904;47.814;11.134;2023-02-28T07:57:43;15.38;;;9.48;;
1811;SDS011;904;47.814;11.134;2023-02-28T08:00:11;13.85;;;8.60;;
1811;SDS011;904;47.814;11.134;2023-02-28T08:02:39;13.50;;;8.80;;
1811;SDS011;904;47.814;11.134;2023-02-28T08:05:06;12.98;;;10.10;;
1811;SDS011;904;47.814;11.134;2023-02-28T08:07:33;13.30;;;9.27;;
1811;SDS011;904;47.814;11.134;2023-02-28T08:10:02;15.55;;;10.27;;
1811;SDS011;904;47.814;11.134;2023-02-28T08:12:30;14.38;;;9.20;;
1811;SDS011;904;47.814;11.134;2023-02-28T08:14:57;13.05;;;8.63;;
1811;SDS011;904;47.814;11.134;2023-02-28T08:17:24;14.13;;;9.30;;
1811;SDS011;904;47.814;11.134;2023-02-28T08:19:51;15.10;;;9.57;;
1811;SDS011;904;47.814;11.134;2023-02-28T08:22:18;14.20;;;9.35;;
1811;SDS011;904;47.814;11.134;2023-02-28T08:24:45;12.70;;;8.68;;
1811;SDS011;904;47.814;11.134;2023-02-28T08:27:13;14.10;;;11.02;;
1811;SDS011;904;47.814;11.134;2023-02-28T08:29:40;16.35;;;9.85;;
1811;SDS011;904;47.814;11.134;2023-02-28T08:32:07;12.27;;;9.25;;
1811;SDS011;904;47.814;11.134;2023-02-28T08:34:34;20.27;;;9.10;;
1811;SDS011;904;47.814;11.134;2023-02-28T08:37:01;13.88;;;10.32;;
1811;SDS011;904;47.814;11.134;2023-02-28T08:39:28;16.10;;;9.23;;
1811;SDS011;904;47.814;11.134;2023-02-28T08:41:55;18.17;;;11.10;;
1811;SDS011;904;47.814;11.134;2023-02-28T08:44:23;12.65;;;9.35;;
1811;SDS011;904;47.814;11.134;2023-02-28T08:46:50;13.10;;;9.50;;
1811;SDS011;904;47.814;11.134;2023-02-28T08:49:17;13.98;;;9.77;;
1811;SDS011;904;47.814;11.134;2023-02-28T08:51:44;14.65;;;10.77;;
1811;SDS011;904;47.814;11.134;2023-02-28T08:54:11;12.02;;;10.15;;
1811;SDS011;904;47.814;11.134;2023-02-28T08:56:39;15.93;;;10.95;;
1811;SDS011;904;47.814;11.134;2023-02-28T08:59:08;16.08;;;10.70;;
1811;SDS011;904;47.814;11.134;2023-02-28T09:01:37;17.15;;;10.90;;
1811;SDS011;904;47.814;11.134;2023-02-28T09:04:04;16.52;;;10.85;;
1811;SDS011;904;47.814;11.134;2023-02-28T09:06:33;12.77;;;9.18;;
1811;SDS011;904;47.814;11.134;2023-02-28T09:09:00;18.77;;;11.13;;
1811;SDS011;904;47.814;11.134;2023-02-28T09:11:29;12.52;;;9.02;;
1811;SDS011;904;47.814;11.134;2023-02-28T09:13:57;15.85;;;11.35;;
1811;SDS011;904;47.814;11.134;2023-02-28T09:16:25;13.63;;;10.18;;
1811;SDS011;904;47.814;11.134;2023-02-28T09:18:53;15.05;;;10.20;;
1811;SDS011;904;47.814;11.134;2023-02-28T09:21:20;16.85;;;10.48;;
1811;SDS011;904;47.814;11.134;2023-02-28T09:23:48;15.18;;;10.65;;
1811;SDS011;904;47.814;11.134;2023-02-28T09:26:17;14.32;;;10.55;;
1811;SDS011;904;47.814;11.134;2023-02-28T09:28:45;16.30;;;11.27;;
1811;SDS011;904;47.814;11.134;2023-02-28T09:31:13;14.68;;;11.00;;
1811;SDS011;904;47.814;11.134;2023-02-28T09:33:41;15.80;;;10.98;;
1811;SDS011;904;47.814;11.134;2023-02-28T09:36:09;16.00;;;10.95;;
1811;SDS011;904;47.814;11.134;2023-02-28T09:38:36;13.85;;;9.95;;
1811;SDS011;904;47.814;11.134;2023-02-28T09:41:04;14.43;;;9.77;;
1811;SDS011;904;47.814;11.134;2023-02-28T09:43:37;15.48;;;10.55;;
1811;SDS011;904;47.814;11.134;2023-02-28T09:46:08;15.68;;;11.07;;
1811;SDS011;904;47.814;11.134;2023-02-28T09:48:44;10.60;;;8.25;;
1811;SDS011;904;47.814;11.134;2023-02-28T09:51:16;16.40;;;10.32;;
1811;SDS011;904;47.814;11.134;2023-02-28T09:53:59;14.93;;;10.18;;
1811;SDS011;904;47.814;11.134;2023-02-28T09:56:28;17.13;;;12.55;;
1811;SDS011;904;47.814;11.134;2023-02-28T09:59:00;15.93;;;11.90;;
1811;SDS011;904;47.814;11.134;2023-02-28T10:01:34;18.77;;;12.48;;
1811;SDS011;904;47.814;11.134;2023-02-28T10:04:05;16.10;;;10.93;;
1811;SDS011;904;47.814;11.134;2023-02-28T10:06:43;21.63;;;11.45;;
1811;SDS011;904;47.814;11.134;2023-02-28T10:09:13;16.33;;;11.00;;
1811;SDS011;904;47.814;11.134;2023-02-28T10:11:45;17.13;;;12.07;;
1811;SDS011;904;47.814;11.134;2023-02-28T10:14:15;15.77;;;10.65;;
1811;SDS011;904;47.814;11.134;2023-02-28T10:16:46;15.32;;;10.25;;
1811;SDS011;904;47.814;11.134;2023-02-28T10:19:18;15.95;;;11.02;;
1811;SDS011;904;47.814;11.134;2023-02-28T10:21:49;16.95;;;11.25;;
1811;SDS011;904;47.814;11.134;2023-02-28T10:24:23;14.27;;;11.00;;
1811;SDS011;904;47.814;11.134;2023-02-28T10:26:56;14.82;;;11.00;;
1811;SDS011;904;47.814;11.134;2023-02-28T10:29:26;14.05;;;11.35;;
1811;SDS011;904;47.814;11.134;2023-02-28T10:31:58;16.30;;;11.82;;
1811;SDS011;904;47.814;11.134;2023-02-28T10:34:28;14.13;;;11.30;;
1811;SDS011;904;47.814;11.134;2023-02-28T10:36:57;15.68;;;11.10;;
1811;SDS011;904;47.814;11.134;2023-02-28T10:39:39;16.02;;;10.90;;
1811;SDS011;904;47.814;11.134;2023-02-28T10:42:18;16.02;;;11.15;;
1811;SDS011;904;47.814;11.134;2023-02-28T10:44:47;16.40;;;12.02;;
1811;SDS011;904;47.814;11.134;2023-02-28T10:47:14;17.50;;;10.98;;
1811;SDS011;904;47.814;11.134;2023-02-28T10:49:46;15.60;;;10.85;;
1811;SDS011;904;47.814;11.134;2023-02-28T10:52:16;16.05;;;10.93;;
1811;SDS011;904;47.814;11.134;2023-02-28T10:55:13;16.45;;;11.50;;
1811;SDS011;904;47.814;11.134;2023-02-28T10:57:42;16.42;;;11.75;;
1811;SDS011;904;47.814;11.134;2023-02-28T11:00:13;18.88;;;12.90;;
1811;SDS011;904;47.814;11.134;2023-02-28T11:02:43;17.08;;;12.90;;
1811;SDS011;904;47.814;11.134;2023-02-28T11:05:22;16.10;;;11.82;;
1811;SDS011;904;47.814;11.134;2023-02-28T11:07:53;19.42;;;12.25;;
1811;SDS011;904;47.814;11.134;2023-02-28T11:10:28;17.40;;;11.88;;
1811;SDS011;904;47.814;11.134;2023-02-28T11:13:00;17.15;;;12.95;;
1811;SDS011;904;47.814;11.134;2023-02-28T11:15:29;19.77;;;12.02;;
1811;SDS011;904;47.814;11.134;2023-02-28T11:17:58;18.55;;;11.15;;
1811;SDS011;904;47.814;11.134;2023-02-28T11:20:29;23.60;;;12.95;;
1811;SDS011;904;47.814;11.134;2023-02-28T11:23:00;22.42;;;15.00;;
1811;SDS011;904;47.814;11.134;2023-02-28T11:25:30;17.23;;;12.57;;
1811;SDS011;904;47.814;11.134;2023-02-28T11:27:58;17.77;;;12.05;;
1811;SDS011;904;47.814;11.134;2023-02-28T11:30:28;19.23;;;12.48;;
1811;SDS011;904;47.814;11.134;2023-02-28T11:33:00;19.92;;;12.45;;
1811;SDS011;904;47.814;11.134;2023-02-28T11:35:43;17.55;;;12.57;;
1811;SDS011;904;47.814;11.134;2023-02-28T11:38:12;19.67;;;12.07;;
1811;SDS011;904;47.814;11.134;2023-02-28T11:40:42;20.25;;;12.95;;
1811;SDS011;904;47.814;11.134;2023-02-28T11:43:22;18.00;;;12.98;;
1811;SDS011;904;47.814;11.134;2023-02-28T11:46:03;15.75;;;11.02;;
1811;SDS011;904;47.814;11.134;2023-02-28T11:48:42;18.67;;;11.95;;
1811;SDS011;904;47.814;11.134;2023-02-28T11:51:18;15.75;;;11.55;;
1811;SDS011;904;47.814;11.134;2023-02-28T11:53:52;17.92;;;11.65;;
1811;SDS011;904;47.814;11.134;2023-02-28T11:56:33;17.60;;;11.95;;
1811;SDS011;904;47.814;11.134;2023-02-28T11:59:18;15.95;;;11.55;;
1811;SDS011;904;47.814;11.134;2023-02-28T12:02:17;18.98;;;11.80;;
1811;SDS011;904;47.814;11.134;2023-02-28T12:04:52;14.88;;;11.05;;
1811;SDS011;904;47.814;11.134;2023-02-28T12:07:30;17.05;;;11.40;;
1811;SDS011;904;47.814;11.134;2023-02-28T12:10:06;17.75;;;10.38;;
1811;SDS011;904;47.814;11.134;2023-02-28T12:12:44;14.32;;;10.93;;
1811;SDS011;904;47.814;11.134;2023-02-28T12:15:27;16.08;;;12.07;;
1811;SDS011;904;47.814;11.134;2023-02-28T12:18:25;18.03;;;14.80;;
1811;SDS011;904;47.814;11.134;2023-02-28T12:21:14;15.90;;;12.30;;
1811;SDS011;904;47.814;11.134;2023-02-28T12:23:58;17.58;;;12.23;;
1811;SDS011;904;47.814;11.134;2023-02-28T12:26:38;16.98;;;11.45;;
1811;SDS011;904;47.814;11.134;2023-02-28T12:29:10;15.82;;;11.68;;
1811;SDS011;904;47.814;11.134;2023-02-28T12:31:44;16.52;;;12.95;;
1811;SDS011;904;47.814;11.134;2023-02-28T12:34:15;15.00;;;11.65;;
1811;SDS011;904;47.814;11.134;2023-02-28T12:36:46;15.15;;;11.38;;
1811;SDS011;904;47.814;11.134;2023-02-28T12:39:16;17.38;;;12.63;;
1811;SDS011;904;47.814;11.134;2023-02-28T12:41:48;15.15;;;11.68;;
1811;SDS011;904;47.814;11.134;2023-02-28T12:44:20;18.90;;;12.75;;
1811;SDS011;904;47.814;11.134;2023-02-28T12:46:53;15.27;;;12.32;;
1811;SDS011;904;47.814;11.134;2023-02-28T12:49:25;19.65;;;12.32;;
1811;SDS011;904;47.814;11.134;2023-02-28T12:51:56;20.67;;;15.35;;
1811;SDS011;904;47.814;11.134;2023-02-28T12:54:27;17.90;;;13.15;;
1811;SDS011;904;47.814;11.134;2023-02-28T12:57:00;16.55;;;12.30;;
1811;SDS011;904;47.814;11.134;2023-02-28T12:59:34;16.15;;;11.98;;
1811;SDS011;904;47.814;11.134;2023-02-28T13:02:14;14.38;;;11.40;;
1811;SDS011;904;47.814;11.134;2023-02-28T13:10:52;17.00;;;12.13;;
1811;SDS011;904;47.814;11.134;2023-02-28T13:13:22;14.52;;;10.57;;
1811;SDS011;904;47.814;11.134;2023-02-28T13:15:58;17.60;;;12.52;;
1811;SDS011;904;47.814;11.134;2023-02-28T13:18:28;15.05;;;10.70;;
1811;SDS011;904;47.814;11.134;2023-02-28T13:21:02;17.33;;;12.13;;
1811;SDS011;904;47.814;11.134;2023-02-28T13:23:56;14.43;;;11.40;;
1811;SDS011;904;47.814;11.134;2023-02-28T13:29:31;15.80;;;11.93;;
1811;SDS011;904;47.814;11.134;2023-02-28T13:44:10;15.50;;;11.02;;
1811;SDS011;904;47.814;11.134;2023-02-28T13:49:53;16.70;;;10.50;;
1811;SDS011;904;47.814;11.134;2023-02-28T13:52:22;16.65;;;11.70;;
1811;SDS011;904;47.814;11.134;2023-02-28T13:54:57;20.25;;;11.65;;
1811;SDS011;904;47.814;11.134;2023-02-28T13:57:49;17.65;;;12.93;;
1811;SDS011;904;47.814;11.134;2023-02-28T14:00:42;15.93;;;11.93;;
1811;SDS011;904;47.814;11.134;2023-02-28T14:03:25;16.50;;;12.50;;
1811;SDS011;904;47.814;11.134;2023-02-28T14:06:09;14.13;;;11.40;;
1811;SDS011;904;47.814;11.134;2023-02-28T14:08:49;19.05;;;12.07;;
1811;SDS011;904;47.814;11.134;2023-02-28T14:11:24;18.33;;;11.57;;
1811;SDS011;904;47.814;11.134;2023-02-28T14:13:53;15.40;;;11.27;;
1811;SDS011;904;47.814;11.134;2023-02-28T14:16:21;15.68;;;12.05;;
1811;SDS011;904;47.814;11.134;2023-02-28T14:18:55;23.80;;;13.18;;
1811;SDS011;904;47.814;11.134;2023-02-28T14:21:25;14.73;;;12.55;;
1811;SDS011;904;47.814;11.134;2023-02-28T14:24:00;17.73;;;12.57;;
1811;SDS011;904;47.814;11.134;2023-02-28T14:32:48;13.57;;;10.73;;
1811;SDS011;904;47.814;11.134;2023-02-28T14:35:35;17.17;;;11.20;;
1811;SDS011;904;47.814;11.134;2023-02-28T14:38:13;16.88;;;11.88;;
1811;SDS011;904;47.814;11.134;2023-02-28T14:40:43;13.85;;;10.40;;
1811;SDS011;904;47.814;11.134;2023-02-28T14:43:19;18.58;;;12.48;;
1811;SDS011;904;47.814;11.134;2023-02-28T14:45:49;14.38;;;10.43;;
1811;SDS011;904;47.814;11.134;2023-02-28T14:48:18;13.85;;;11.43;;
1811;SDS011;904;47.814;11.134;2023-02-28T14:50:52;16.38;;;10.68;;
1811;SDS011;904;47.814;11.134;2023-02-28T14:53:21;15.40;;;10.98;;
1811;SDS011;904;47.814;11.134;2023-02-28T14:55:51;14.43;;;10.30;;
1811;SDS011;904;47.814;11.134;2023-02-28T14:58:23;13.13;;;10.45;;
1811;SDS011;904;47.814;11.134;2023-02-28T15:00:52;12.48;;;10.40;;
1811;SDS011;904;47.814;11.134;2023-02-28T15:03:21;14.90;;;10.80;;
1811;SDS011;904;47.814;11.134;2023-02-28T15:05:54;15.55;;;9.40;;
1811;SDS011;904;47.814;11.134;2023-02-28T15:08:22;15.93;;;12.35;;
1811;SDS011;904;47.814;11.134;2023-02-28T15:10:51;18.00;;;11.07;;
1811;SDS011;904;47.814;11.134;2023-02-28T15:13:20;17.90;;;12.18;;
1811;SDS011;904;47.814;11.134;2023-02-28T15:15:49;14.60;;;12.10;;
1811;SDS011;904;47.814;11.134;2023-02-28T15:18:25;14.38;;;11.32;;
1811;SDS011;904;47.814;11.134;2023-02-28T15:21:01;16.80;;;11.85;;
1811;SDS011;904;47.814;11.134;2023-02-28T15:23:32;13.90;;;11.05;;
1811;SDS011;904;47.814;11.134;2023-02-28T15:26:02;15.85;;;11.73;;
1811;SDS011;904;47.814;11.134;2023-02-28T15:28:30;14.60;;;11.30;;
1811;SDS011;904;47.814;11.134;2023-02-28T15:30:58;19.42;;;13.00;;
1811;SDS011;904;47.814;11.134;2023-02-28T15:33:27;17.98;;;12.18;;
1811;SDS011;904;47.814;11.134;2023-02-28T15:36:10;18.60;;;11.77;;
1811;SDS011;904;47.814;11.134;2023-02-28T15:38:46;14.38;;;10.57;;
1811;SDS011;904;47.814;11.134;2023-02-28T15:41:24;13.82;;;10.75;;
1811;SDS011;904;47.814;11.134;2023-02-28T15:46:43;19.75;;;12.05;;
1811;SDS011;904;47.814;11.134;2023-02-28T15:49:20;16.60;;;11.77;;
1811;SDS011;904;47.814;11.134;2023-02-28T15:51:50;18.63;;;11.65;;
1811;SDS011;904;47.814;11.134;2023-02-28T15:54:19;13.00;;;10.00;;
1811;SDS011;904;47.814;11.134;2023-02-28T15:56:50;21.02;;;12.75;;
1811;SDS011;904;47.814;11.134;2023-02-28T15:59:20;23.08;;;14.77;;
1811;SDS011;904;47.814;11.134;2023-02-28T16:02:02;18.77;;;12.82;;
1811;SDS011;904;47.814;11.134;2023-02-28T16:07:23;20.52;;;12.77;;